Terminal Aerodrome Forecast
Issued by NWS Twin Cities, MN

Home | Current Version | Previous Version | Graphics & Text | Print | Product List | Glossary On
Versions: 1 2 3 4 5 6 7 8 9 10 11 12 13 14 15 16 17 18 19 20 21 22
000
FTUS43 KMPX 221120
TAFSTC
TAF
KSTC 221120Z 2212/2312 VRB03KT P6SM SCT150
      TEMPO 2212/2213 5SM BR
     FM221400 14005KT P6SM SCT250
     FM230200 00000KT P6SM BKN250=

USA.gov is the U.S. government's official web portal to all federal, state and local government web resources and services.